Time;durP1;ratioP1;P1;durP2;ratioP2;P2;SDS_P1;SDS_P2;PMS_P1;PMS_P2;Temp;Humidity;BMP_temperature;BMP_pressure;BME280_temperature;BME280_humidity;BME280_pressure;Samples;Min_cycle;Max_cycle;Signal;HPM_P1;HPM_P2
2021/06/26 00:01:04;;;;;;;1.40;0.40;;;;;;;22.97;61.76;99590.47;4783674;29;20115;-84
2021/06/26 00:03:30;;;;;;;0.75;0.38;;;;;;;22.98;61.80;99578.34;4768549;30;20218;-84
2021/06/26 00:05:57;;;;;;;0.43;0.30;;;;;;;22.95;61.49;99565.84;4784473;29;20160;-82
2021/06/26 00:08:26;;;;;;;0.40;0.40;;;;;;;22.91;61.82;99564.63;4770767;30;20431;-83
2021/06/26 00:10:53;;;;;;;0.65;0.30;;;;;;;22.84;62.15;99564.72;4769215;30;20550;-81
2021/06/26 00:13:20;;;;;;;0.98;0.40;;;;;;;22.80;62.22;99574.53;4784621;29;20356;-82
2021/06/26 00:15:47;;;;;;;1.08;0.32;;;;;;;22.76;62.74;99567.78;4765785;30;20044;-82
2021/06/26 00:18:13;;;;;;;0.30;0.30;;;;;;;22.75;63.26;99565.28;4780210;29;20107;-82
2021/06/26 00:20:40;;;;;;;0.75;0.30;;;;;;;22.67;62.79;99544.41;4782511;29;20044;-80
2021/06/26 00:23:06;;;;;;;0.55;0.30;;;;;;;22.61;63.05;99553.59;4782849;30;20043;-82
2021/06/26 00:25:32;;;;;;;0.30;0.30;;;;;;;22.54;63.01;99558.34;4769550;29;20429;-82
2021/06/26 00:27:58;;;;;;;0.25;0.25;;;;;;;22.60;62.84;99576.72;4769254;30;20083;-81
2021/06/26 00:30:24;;;;;;;0.43;0.38;;;;;;;22.57;63.01;99571.66;4782805;29;20082;-82
2021/06/26 00:32:50;;;;;;;0.40;0.30;;;;;;;22.56;62.31;99568.06;4768125;30;20047;-82
2021/06/26 00:35:16;;;;;;;0.30;0.30;;;;;;;22.53;63.21;99568.53;4768641;30;20067;-81
2021/06/26 00:37:43;;;;;;;0.88;0.30;;;;;;;22.54;63.11;99570.19;4769526;30;22825;-81
2021/06/26 00:40:09;;;;;;;0.73;0.28;;;;;;;22.56;62.64;99572.72;4782863;29;20153;-80
2021/06/26 00:42:38;;;;;;;0.20;0.20;;;;;;;22.60;62.60;99568.44;4767768;30;20549;-81
2021/06/26 00:45:05;;;;;;;0.50;0.20;;;;;;;22.54;62.61;99561.94;4756683;30;20055;-82
2021/06/26 00:47:31;;;;;;;0.50;0.30;;;;;;;22.52;62.81;99561.31;4768872;30;20130;-80
2021/06/26 00:49:58;;;;;;;0.43;0.30;;;;;;;22.48;63.41;99554.59;4768500;30;20083;-81
2021/06/26 00:52:24;;;;;;;0.65;0.50;;;;;;;22.43;63.37;99550.84;4779767;29;20059;-81
2021/06/26 00:54:51;;;;;;;0.30;0.30;;;;;;;22.32;64.32;99558.81;4766734;30;20059;-81
2021/06/26 00:57:17;;;;;;;0.30;0.30;;;;;;;22.30;64.43;99551.84;4768657;30;20375;-80
2021/06/26 00:59:43;;;;;;;0.30;0.30;;;;;;;22.27;64.63;99557.84;4781363;29;20595;-81
2021/06/26 01:02:10;;;;;;;0.50;0.30;;;;;;;22.21;65.08;99548.56;4751632;30;20309;-82
2021/06/26 01:04:36;;;;;;;0.60;0.30;;;;;;;22.26;64.88;99550.63;4751984;30;20076;-83
2021/06/26 01:07:03;;;;;;;0.35;0.30;;;;;;;22.24;64.89;99548.13;4752233;30;20036;-81
2021/06/26 01:09:29;;;;;;;1.38;0.50;;;;;;;22.21;65.27;99545.81;4767917;30;20077;-83
2021/06/26 01:11:58;;;;;;;0.30;0.30;;;;;;;22.19;65.54;99545.19;4771578;30;20059;-80
2021/06/26 01:14:30;;;;;;;0.35;0.25;;;;;;;22.18;65.36;99554.53;4771159;30;20044;-83
2021/06/26 01:17:02;;;;;;;0.30;0.30;;;;;;;22.22;65.38;99564.00;4768506;30;20047;-81
2021/06/26 01:19:28;;;;;;;0.40;0.40;;;;;;;22.22;65.95;99565.94;4751190;30;20051;-83
2021/06/26 01:21:54;;;;;;;0.22;0.22;;;;;;;22.19;65.98;99569.97;4768517;30;20055;-80
2021/06/26 01:24:21;;;;;;;0.50;0.40;;;;;;;22.00;66.60;99573.75;4767839;30;20398;-81
2021/06/26 01:26:47;;;;;;;0.40;0.40;;;;;;;21.88;67.17;99577.25;4767474;30;20162;-83
2021/06/26 01:29:12;;;;;;;0.52;0.40;;;;;;;21.77;67.81;99569.75;4767133;30;20043;-81
2021/06/26 01:31:39;;;;;;;0.82;0.30;;;;;;;21.67;68.08;99563.91;4750397;30;20059;-80
2021/06/26 01:34:05;;;;;;;0.50;0.43;;;;;;;21.57;68.54;99563.56;4780613;29;20067;-81
2021/06/26 01:36:31;;;;;;;0.93;0.40;;;;;;;21.56;68.68;99571.00;4767360;30;20054;-84
2021/06/26 01:38:58;;;;;;;0.95;0.30;;;;;;;21.49;69.28;99566.63;4766621;30;20044;-81
2021/06/26 01:41:30;;;;;;;0.40;0.40;;;;;;;21.41;69.38;99576.81;4749345;30;20066;-83
2021/06/26 01:43:55;;;;;;;0.45;0.30;;;;;;;21.43;69.54;99569.22;4782546;29;20113;-80
2021/06/26 01:46:21;;;;;;;0.60;0.32;;;;;;;21.42;69.91;99566.66;4781798;29;20510;-82
2021/06/26 01:48:47;;;;;;;0.35;0.30;;;;;;;21.37;69.94;99564.59;4782708;29;20043;-80
2021/06/26 01:51:13;;;;;;;0.73;0.40;;;;;;;21.37;70.15;99559.09;4777970;30;20055;-83
2021/06/26 01:53:39;;;;;;;0.75;0.40;;;;;;;21.48;69.89;99546.53;4784013;30;20103;-81
2021/06/26 01:56:05;;;;;;;0.65;0.50;;;;;;;21.62;69.40;99550.84;4783287;30;20128;-79
2021/06/26 01:58:31;;;;;;;0.55;0.47;;;;;;;21.75;69.11;99544.34;4785166;30;20581;-79
2021/06/26 02:00:56;;;;;;;0.52;0.40;;;;;;;21.77;68.87;99542.22;4784312;30;20096;-79
2021/06/26 02:03:22;;;;;;;0.50;0.40;;;;;;;21.73;69.13;99546.50;4778484;30;20048;-81
2021/06/26 02:05:48;;;;;;;0.98;0.43;;;;;;;21.63;69.33;99551.69;4782238;30;20051;-80
2021/06/26 02:08:14;;;;;;;0.50;0.40;;;;;;;21.59;69.32;99544.94;4780868;30;20051;-79
2021/06/26 02:10:40;;;;;;;0.38;0.38;;;;;;;21.54;69.30;99542.03;4777935;30;20079;-81
2021/06/26 02:13:05;;;;;;;0.65;0.35;;;;;;;21.60;68.88;99543.88;4778512;30;20125;-80
2021/06/26 02:15:31;;;;;;;0.85;0.43;;;;;;;21.54;69.23;99536.53;4782725;30;20123;-82
2021/06/26 02:17:57;;;;;;;0.30;0.30;;;;;;;21.56;69.43;99532.47;4783454;30;20051;-80
2021/06/26 02:20:23;;;;;;;0.40;0.40;;;;;;;21.64;69.15;99536.84;4782314;30;20047;-79
2021/06/26 02:22:49;;;;;;;0.57;0.38;;;;;;;21.75;68.49;99527.84;4782967;30;20044;-78
2021/06/26 02:25:16;;;;;;;0.40;0.40;;;;;;;21.76;68.45;99535.06;4772358;30;20086;-81
2021/06/26 02:27:43;;;;;;;0.30;0.30;;;;;;;21.74;68.66;99539.94;4781667;29;20070;-81
2021/06/26 02:30:10;;;;;;;1.92;0.55;;;;;;;21.69;68.55;99533.44;4782272;29;20059;-80
2021/06/26 02:32:36;;;;;;;1.23;0.50;;;;;;;21.63;68.51;99535.16;4766523;30;20071;-81
2021/06/26 02:35:03;;;;;;;0.40;0.40;;;;;;;21.62;68.92;99530.75;4781789;29;20570;-81
2021/06/26 02:37:28;;;;;;;0.70;0.47;;;;;;;21.65;68.19;99538.56;4781936;29;20035;-81
2021/06/26 02:39:54;;;;;;;0.40;0.32;;;;;;;21.59;68.82;99533.94;4767310;30;20054;-81
2021/06/26 02:42:20;;;;;;;0.65;0.40;;;;;;;21.55;69.11;99544.56;4767430;30;20047;-81
2021/06/26 02:44:46;;;;;;;0.30;0.30;;;;;;;21.53;68.64;99548.59;4782605;29;20143;-81
2021/06/26 02:47:12;;;;;;;1.02;0.55;;;;;;;21.49;68.89;99550.13;4767131;30;20596;-82
2021/06/26 02:49:38;;;;;;;0.73;0.50;;;;;;;21.47;69.23;99542.09;4760892;30;20612;-81
2021/06/26 02:52:07;;;;;;;1.65;0.50;;;;;;;21.63;68.50;99541.50;4767650;30;20549;-81
2021/06/26 02:54:33;;;;;;;0.70;0.55;;;;;;;21.59;68.68;99536.69;4769404;30;20133;-82
2021/06/26 02:56:59;;;;;;;0.75;0.40;;;;;;;21.66;68.52;99545.72;4779559;30;20048;-82
2021/06/26 02:59:25;;;;;;;0.88;0.60;;;;;;;21.63;68.48;99546.19;4790220;29;20094;-80
2021/06/26 03:01:51;;;;;;;0.40;0.40;;;;;;;21.71;68.53;99545.03;4770046;30;20052;-79
2021/06/26 03:04:17;;;;;;;0.85;0.50;;;;;;;21.72;67.85;99553.09;4780572;30;20044;-81
2021/06/26 03:06:43;;;;;;;0.40;0.40;;;;;;;21.79;68.04;99537.34;4766590;30;20088;-80
2021/06/26 03:09:08;;;;;;;1.10;0.50;;;;;;;21.94;67.01;99541.63;4739298;30;20070;-82
2021/06/26 03:11:34;;;;;;;1.95;0.60;;;;;;;22.07;66.49;99542.34;4768708;30;20134;-82
2021/06/26 03:14:00;;;;;;;1.10;0.70;;;;;;;22.23;66.25;99535.44;4770309;30;20063;-83
2021/06/26 03:16:26;;;;;;;0.40;0.40;;;;;;;22.36;65.76;99535.25;4768567;30;20051;-80
2021/06/26 03:18:52;;;;;;;0.80;0.50;;;;;;;22.64;65.24;99531.09;4769410;30;20108;-79
2021/06/26 03:21:18;;;;;;;0.70;0.52;;;;;;;22.76;64.83;99540.22;4771658;30;20090;-83
2021/06/26 03:23:43;;;;;;;0.57;0.50;;;;;;;22.82;64.41;99550.34;4784102;29;20054;-81
2021/06/26 03:26:09;;;;;;;0.50;0.38;;;;;;;22.73;64.24;99540.69;4770150;30;20132;-82
2021/06/26 03:28:36;;;;;;;0.85;0.50;;;;;;;22.84;64.20;99537.13;4781211;29;20115;-83
2021/06/26 03:31:04;;;;;;;0.68;0.50;;;;;;;22.85;63.88;99527.81;4784727;29;20048;-83
2021/06/26 03:33:30;;;;;;;0.77;0.50;;;;;;;23.03;63.65;99529.69;4790212;29;20047;-82
2021/06/26 03:35:56;;;;;;;1.38;0.52;;;;;;;23.12;63.44;99527.44;4772274;30;20051;-82
2021/06/26 03:38:22;;;;;;;0.85;0.30;;;;;;;23.40;62.18;99528.66;4787596;29;20126;-83
2021/06/26 03:40:49;;;;;;;0.77;0.45;;;;;;;23.63;62.63;99522.34;4770222;30;20063;-82
2021/06/26 03:43:15;;;;;;;0.50;0.50;;;;;;;24.01;61.19;99524.63;4771217;30;20078;-81
2021/06/26 03:45:41;;;;;;;1.35;0.50;;;;;;;24.16;60.37;99527.72;4770500;30;20127;-82
2021/06/26 03:48:07;;;;;;;0.45;0.40;;;;;;;24.20;60.36;99534.44;4784154;29;20405;-80
2021/06/26 03:50:35;;;;;;;0.80;0.43;;;;;;;24.39;59.49;99531.50;4769398;30;20050;-80
2021/06/26 03:53:00;;;;;;;0.95;0.50;;;;;;;24.52;59.23;99528.50;4770003;30;20534;-82
2021/06/26 03:55:26;;;;;;;1.00;0.50;;;;;;;24.15;60.14;99530.75;4785765;30;20052;-83
2021/06/26 03:57:52;;;;;;;1.13;0.50;;;;;;;24.28;59.50;99531.31;4777610;30;20154;-82
2021/06/26 04:00:19;;;;;;;0.60;0.43;;;;;;;24.54;59.52;99524.44;4772523;30;20490;-82
2021/06/26 04:02:44;;;;;;;0.50;0.50;;;;;;;24.81;57.98;99529.34;4771047;30;20055;-82
2021/06/26 04:05:10;;;;;;;0.57;0.32;;;;;;;24.83;58.29;99527.19;4773970;30;20056;-83
2021/06/26 04:07:36;;;;;;;0.75;0.52;;;;;;;24.69;58.51;99526.66;4776377;30;20105;-82
2021/06/26 04:10:03;;;;;;;0.73;0.60;;;;;;;25.00;57.75;99516.97;4778061;30;20151;-83
2021/06/26 04:12:29;;;;;;;0.77;0.40;;;;;;;25.13;57.55;99520.56;4787728;29;20171;-83
2021/06/26 04:14:55;;;;;;;1.35;0.47;;;;;;;24.92;58.21;99527.63;4773687;30;20052;-82
2021/06/26 04:17:21;;;;;;;0.50;0.40;;;;;;;24.87;58.36;99530.31;4771605;30;20055;-82
2021/06/26 04:19:47;;;;;;;0.40;0.40;;;;;;;25.03;58.08;99522.03;4765901;30;20097;-82
2021/06/26 04:22:13;;;;;;;0.70;0.60;;;;;;;24.95;57.78;99518.84;4783774;29;20047;-83
2021/06/26 04:24:39;;;;;;;0.45;0.32;;;;;;;24.86;58.32;99523.91;4771138;30;20050;-81
2021/06/26 04:27:05;;;;;;;0.68;0.50;;;;;;;24.88;57.96;99518.16;4770639;30;20130;-81
2021/06/26 04:29:31;;;;;;;0.30;0.30;;;;;;;24.80;58.58;99521.31;4771130;30;20060;-82
2021/06/26 04:31:57;;;;;;;1.50;0.70;;;;;;;25.13;57.65;99526.94;4772203;30;20059;-84
2021/06/26 04:34:23;;;;;;;1.00;0.70;;;;;;;25.81;55.60;99538.03;4773423;30;20043;-83
2021/06/26 04:36:50;;;;;;;0.70;0.70;;;;;;;26.31;53.91;99537.91;4793191;29;20058;-83
2021/06/26 04:39:22;;;;;;;0.77;0.60;;;;;;;27.08;52.77;99536.88;4789277;29;20040;-84
2021/06/26 04:41:48;;;;;;;0.82;0.63;;;;;;;27.01;52.16;99540.97;4775794;30;20066;-82
2021/06/26 04:44:13;;;;;;;0.47;0.47;;;;;;;27.57;51.31;99538.72;4788820;29;20475;-81
2021/06/26 04:46:40;;;;;;;0.65;0.60;;;;;;;27.82;50.46;99535.34;4775152;30;20043;-83
2021/06/26 04:49:06;;;;;;;0.85;0.70;;;;;;;28.41;49.26;99537.09;4770555;30;20061;-83
2021/06/26 04:51:35;;;;;;;1.13;0.57;;;;;;;28.78;48.50;99531.41;4770714;30;20051;-84
2021/06/26 04:54:02;;;;;;;1.10;0.70;;;;;;;29.11;47.15;99537.59;4771146;30;20048;-83
2021/06/26 04:56:28;;;;;;;1.50;0.73;;;;;;;29.59;46.82;99539.06;4756568;30;20050;-83
2021/06/26 04:58:53;;;;;;;0.85;0.70;;;;;;;29.92;45.80;99540.44;4767199;30;20092;-85
2021/06/26 05:01:19;;;;;;;0.70;0.63;;;;;;;30.25;45.09;99546.50;4787804;29;20050;-83
2021/06/26 05:03:46;;;;;;;1.17;0.73;;;;;;;30.70;44.27;99550.22;4790954;29;20059;-84
2021/06/26 05:06:12;;;;;;;0.50;0.50;;;;;;;31.08;42.97;99545.00;4777335;30;20111;-82
2021/06/26 05:08:38;;;;;;;1.50;0.70;;;;;;;31.20;42.06;99548.31;4766526;30;20460;-83
2021/06/26 05:11:06;;;;;;;1.55;0.68;;;;;;;31.45;41.48;99539.75;4775219;30;20062;-84
2021/06/26 05:13:33;;;;;;;0.43;0.43;;;;;;;30.96;43.16;99560.16;4771746;30;20044;-83
2021/06/26 05:15:59;;;;;;;0.75;0.60;;;;;;;31.11;43.22;99550.03;4756902;29;20071;-84
2021/06/26 05:18:28;;;;;;;0.73;0.50;;;;;;;30.79;43.56;99545.78;4741300;30;20037;-85
2021/06/26 05:20:55;;;;;;;0.70;0.30;;;;;;;30.74;42.38;99541.03;4742979;30;20058;-84
2021/06/26 05:23:21;;;;;;;0.38;0.30;;;;;;;29.96;43.78;99535.94;4742174;30;20044;-81
2021/06/26 05:25:48;;;;;;;0.47;0.40;;;;;;;30.10;44.44;99546.53;4739723;30;20100;-84
2021/06/26 05:28:14;;;;;;;0.50;0.50;;;;;;;30.22;44.56;99538.72;4735823;30;20500;-85
2021/06/26 05:30:41;;;;;;;0.50;0.50;;;;;;;30.30;44.12;99535.31;4758084;30;20104;-84
2021/06/26 05:33:09;;;;;;;0.68;0.68;;;;;;;31.23;43.32;99528.16;4733491;30;20060;-85
2021/06/26 05:35:36;;;;;;;0.70;0.70;;;;;;;31.21;42.43;99533.19;4749911;30;20466;-85
2021/06/26 05:38:03;;;;;;;0.77;0.60;;;;;;;31.51;41.86;99531.31;4749933;30;20054;-84
2021/06/26 05:40:30;;;;;;;0.60;0.60;;;;;;;32.07;40.34;99533.59;4717252;30;20040;-84
2021/06/26 05:42:56;;;;;;;0.77;0.60;;;;;;;31.70;42.00;99535.03;4732224;30;20108;-82
2021/06/26 05:45:23;;;;;;;0.60;0.60;;;;;;;31.45;41.20;99528.59;4743168;30;20087;-84
2021/06/26 05:47:49;;;;;;;0.60;0.60;;;;;;;31.66;40.95;99533.97;4742596;30;20051;-83
2021/06/26 05:50:15;;;;;;;0.73;0.70;;;;;;;32.19;39.73;99536.84;4746062;30;20052;-83
2021/06/26 05:52:52;;;;;;;0.50;0.50;;;;;;;31.84;39.98;99524.84;4726609;30;20120;-82
2021/06/26 05:55:20;;;;;;;0.70;0.70;;;;;;;32.06;40.96;99531.94;4742801;30;20060;-83
2021/06/26 05:57:47;;;;;;;0.60;0.60;;;;;;;32.21;40.21;99533.72;4751737;30;20048;-83
2021/06/26 06:00:17;;;;;;;0.63;0.63;;;;;;;32.64;39.85;99518.66;4732199;30;20052;-85
2021/06/26 06:02:44;;;;;;;0.70;0.70;;;;;;;33.62;38.43;99529.28;4761719;30;20128;-84
2021/06/26 06:05:13;;;;;;;0.60;0.60;;;;;;;32.92;39.14;99515.22;4729582;30;20151;-85
2021/06/26 06:07:40;;;;;;;0.68;0.68;;;;;;;32.98;39.22;99519.63;4750913;30;20143;-82
2021/06/26 06:10:08;;;;;;;0.60;0.60;;;;;;;34.00;37.84;99512.31;4733337;30;20064;-83
2021/06/26 06:12:36;;;;;;;0.70;0.70;;;;;;;34.14;35.49;99521.59;4733422;30;20047;-85
2021/06/26 06:15:06;;;;;;;0.60;0.60;;;;;;;34.71;34.26;99515.69;4749504;30;20036;-85
2021/06/26 06:17:34;;;;;;;0.80;0.80;;;;;;;35.08;34.67;99511.75;4735160;30;20060;-85
2021/06/26 06:20:04;;;;;;;0.80;0.80;;;;;;;35.46;34.60;99517.00;4752434;30;20074;-85
2021/06/26 06:22:32;;;;;;;0.95;0.95;;;;;;;35.53;34.86;99517.41;4700396;30;20123;-83
2021/06/26 06:24:59;;;;;;;0.93;0.93;;;;;;;35.43;34.39;99514.81;4745687;30;20072;-84
2021/06/26 06:27:26;;;;;;;0.63;0.63;;;;;;;35.56;33.83;99519.59;4735690;30;20543;-82
2021/06/26 06:29:52;;;;;;;0.80;0.80;;;;;;;34.69;34.49;99515.16;4735114;30;20063;-83
2021/06/26 06:32:18;;;;;;;0.70;0.70;;;;;;;35.98;32.56;99508.91;4739196;30;20076;-84
2021/06/26 06:34:45;;;;;;;0.60;0.60;;;;;;;35.41;33.57;99509.53;4732536;30;20040;-84
2021/06/26 06:37:11;;;;;;;0.40;0.40;;;;;;;34.84;33.09;99508.34;4723725;30;20102;-83
2021/06/26 06:39:37;;;;;;;0.30;0.30;;;;;;;34.03;34.84;99508.91;4737112;30;20439;-84
2021/06/26 06:42:04;;;;;;;0.57;0.40;;;;;;;33.97;35.25;99512.91;4732437;30;20625;-82
2021/06/26 06:44:30;;;;;;;0.60;0.60;;;;;;;33.90;34.99;99509.69;4735491;30;20052;-84
2021/06/26 06:46:56;;;;;;;0.50;0.50;;;;;;;33.95;35.85;99515.22;4736422;30;20061;-82
2021/06/26 06:49:23;;;;;;;0.40;0.40;;;;;;;33.74;36.45;99498.75;4737019;30;20144;-83
2021/06/26 06:51:49;;;;;;;0.40;0.40;;;;;;;32.67;37.63;99508.00;4736885;30;20080;-83
2021/06/26 06:54:18;;;;;;;0.50;0.50;;;;;;;32.81;36.51;99508.91;4722911;30;20070;-82
2021/06/26 06:56:45;;;;;;;0.57;0.57;;;;;;;33.52;35.78;99518.22;4748540;30;20049;-83
2021/06/26 06:59:11;;;;;;;0.50;0.50;;;;;;;33.46;34.38;99505.38;4732547;30;20504;-83
2021/06/26 07:01:37;;;;;;;0.47;0.47;;;;;;;33.61;33.34;99510.78;4749184;30;20043;-84
2021/06/26 07:04:03;;;;;;;0.57;0.57;;;;;;;33.70;33.61;99502.50;4737823;30;20076;-81
2021/06/26 07:06:29;;;;;;;0.50;0.50;;;;;;;33.85;34.65;99505.84;4739515;30;20040;-84
2021/06/26 07:08:55;;;;;;;0.50;0.50;;;;;;;34.14;35.07;99501.94;4736023;30;20637;-83
2021/06/26 07:11:22;;;;;;;0.70;0.70;;;;;;;34.46;35.58;99498.19;4736884;30;20045;-83
2021/06/26 07:13:48;;;;;;;0.50;0.50;;;;;;;33.55;36.37;99500.78;4756967;30;20079;-84
2021/06/26 07:16:14;;;;;;;0.40;0.40;;;;;;;33.98;35.93;99501.41;4741019;30;20040;-82
2021/06/26 07:18:41;;;;;;;0.68;0.50;;;;;;;33.46;36.05;99497.84;4731080;30;20052;-83
2021/06/26 07:21:07;;;;;;;0.40;0.32;;;;;;;33.26;37.17;99498.16;4742546;30;20054;-83
2021/06/26 07:23:33;;;;;;;1.00;0.35;;;;;;;32.90;37.66;99499.53;4740789;30;20071;-82
2021/06/26 07:26:00;;;;;;;0.98;0.32;;;;;;;32.77;38.14;99496.66;4748147;30;20068;-81
2021/06/26 07:28:26;;;;;;;0.63;0.50;;;;;;;32.63;38.74;99507.78;4734822;30;20087;-84
2021/06/26 07:30:53;;;;;;;0.98;0.80;;;;;;;33.30;37.70;99494.44;4719383;30;20100;-83
2021/06/26 07:33:19;;;;;;;0.93;0.93;;;;;;;34.35;36.32;99504.34;4742990;30;20071;-84
2021/06/26 07:35:45;;;;;;;1.30;1.20;;;;;;;35.55;32.68;99512.31;4733005;30;20048;-83
2021/06/26 07:38:12;;;;;;;1.17;1.17;;;;;;;36.90;31.39;99511.91;4718920;30;20082;-84
2021/06/26 07:40:39;;;;;;;1.00;1.00;;;;;;;37.37;30.45;99517.72;4736560;30;20135;-84
2021/06/26 07:43:12;;;;;;;1.10;1.10;;;;;;;37.89;29.47;99509.22;4751707;30;20118;-83
2021/06/26 07:45:39;;;;;;;1.13;1.13;;;;;;;37.98;29.72;99518.47;4748305;30;20091;-83
2021/06/26 07:51:33;;;;;;;1.10;1.10;;;;;;;39.65;27.84;99517.09;4974112;24;20067;-83
2021/06/26 07:54:00;;;;;;;1.02;1.02;;;;;;;40.19;26.73;99517.03;4761846;30;20055;-82
2021/06/26 07:56:29;;;;;;;1.10;1.00;;;;;;;40.53;25.74;99514.91;4767165;30;20054;-81
2021/06/26 07:58:56;;;;;;;1.10;1.10;;;;;;;41.28;25.48;99514.41;4763599;30;20048;-79
2021/06/26 08:01:22;;;;;;;1.05;1.05;;;;;;;41.47;24.72;99527.97;4751661;30;20105;-82
2021/06/26 08:03:49;;;;;;;1.98;1.35;;;;;;;41.26;24.29;99511.13;4737599;30;20044;-82
2021/06/26 08:06:15;;;;;;;1.10;1.10;;;;;;;42.11;22.94;99512.72;4766485;30;20063;-80
2021/06/26 08:08:41;;;;;;;1.52;1.10;;;;;;;42.01;23.01;99502.72;4738420;30;20144;-80
2021/06/26 08:11:08;;;;;;;1.58;1.13;;;;;;;42.83;22.21;99509.66;4769792;30;20059;-82
2021/06/26 08:13:34;;;;;;;1.17;1.08;;;;;;;42.58;22.43;99497.66;4768381;30;20134;-81
2021/06/26 08:16:00;;;;;;;1.30;1.20;;;;;;;42.95;22.44;99511.53;4753692;30;20064;-81
2021/06/26 08:18:26;;;;;;;0.95;0.95;;;;;;;42.89;22.48;99501.63;4753437;30;20043;-80
2021/06/26 08:20:52;;;;;;;1.10;1.10;;;;;;;41.65;23.11;99498.91;4765155;30;20055;-78
2021/06/26 08:23:18;;;;;;;1.40;1.10;;;;;;;42.11;22.57;99496.50;4752399;30;20086;-79
2021/06/26 08:25:45;;;;;;;1.00;1.00;;;;;;;42.28;22.53;99509.53;4766508;30;20075;-80
2021/06/26 08:28:11;;;;;;;1.23;1.23;;;;;;;42.59;21.80;99499.31;4765234;30;20047;-82
2021/06/26 08:30:37;;;;;;;1.42;1.33;;;;;;;42.45;20.88;99504.66;4767469;30;20051;-80
2021/06/26 08:33:03;;;;;;;1.15;1.15;;;;;;;43.08;20.01;99504.56;4749458;30;20487;-80
2021/06/26 08:35:29;;;;;;;1.10;1.10;;;;;;;41.92;21.09;99487.88;4764049;30;20044;-80
2021/06/26 08:37:55;;;;;;;1.20;1.20;;;;;;;41.81;21.32;99492.44;4763496;30;20187;-80
2021/06/26 08:40:22;;;;;;;1.20;1.20;;;;;;;41.84;21.66;99486.88;4723100;30;20469;-81
2021/06/26 08:42:49;;;;;;;1.02;1.02;;;;;;;42.67;20.62;99489.78;4768364;30;20050;-81
2021/06/26 08:45:18;;;;;;;2.67;1.40;;;;;;;43.34;20.33;99475.41;4766893;30;20056;-80
2021/06/26 08:47:49;;;;;;;0.90;0.90;;;;;;;43.37;20.17;99485.22;4773071;29;20111;-81
2021/06/26 08:50:17;;;;;;;1.02;1.02;;;;;;;43.31;20.82;99485.53;4750871;30;20088;-83
2021/06/26 08:52:44;;;;;;;1.20;1.20;;;;;;;43.90;20.19;99488.31;4768898;30;20225;-79
2021/06/26 08:55:10;;;;;;;0.90;0.90;;;;;;;43.87;19.72;99489.03;4736151;30;20056;-81
2021/06/26 08:57:39;;;;;;;0.90;0.90;;;;;;;43.70;20.58;99491.19;4746029;30;20499;-81
2021/06/26 09:00:09;;;;;;;1.10;1.10;;;;;;;44.00;20.06;99484.84;4737086;30;20048;-81
2021/06/26 09:02:37;;;;;;;1.27;1.17;;;;;;;44.35;19.60;99480.97;4751737;30;20043;-83
2021/06/26 09:05:04;;;;;;;1.40;1.20;;;;;;;44.78;19.66;99475.94;4758976;30;20044;-80
2021/06/26 09:07:34;;;;;;;1.23;0.90;;;;;;;44.80;18.44;99473.50;4764215;30;20076;-81
2021/06/26 09:10:21;;;;;;;1.08;1.00;;;;;;;44.60;18.84;99469.94;4763803;30;20154;-81
2021/06/26 09:12:50;;;;;;;1.63;1.10;;;;;;;44.48;18.68;99473.84;4778661;29;20596;-82
2021/06/26 09:15:26;;;;;;;1.30;1.10;;;;;;;45.16;18.46;99469.97;4764130;30;20052;-82
2021/06/26 09:17:53;;;;;;;0.98;0.98;;;;;;;44.72;18.53;99459.16;4764334;30;20438;-80
2021/06/26 09:20:22;;;;;;;0.95;0.95;;;;;;;44.79;18.21;99463.31;4766532;30;20418;-81
2021/06/26 09:22:52;;;;;;;1.23;1.23;;;;;;;44.89;18.62;99462.63;4738656;30;20055;-80
2021/06/26 09:25:24;;;;;;;0.90;0.90;;;;;;;45.31;18.11;99462.38;4766794;30;20127;-81
2021/06/26 09:27:51;;;;;;;1.00;1.00;;;;;;;45.40;18.27;99459.22;4767534;30;20139;-83
2021/06/26 09:30:17;;;;;;;1.00;0.90;;;;;;;45.43;17.76;99449.88;4766254;30;20103;-80
2021/06/26 09:32:46;;;;;;;0.90;0.90;;;;;;;44.83;18.49;99456.44;4766945;30;20418;-80
2021/06/26 09:35:18;;;;;;;1.20;1.10;;;;;;;44.66;19.34;99468.41;4760518;30;20506;-81
2021/06/26 09:37:45;;;;;;;1.00;1.00;;;;;;;45.02;19.06;99469.75;4767486;30;20366;-82
2021/06/26 09:40:12;;;;;;;0.90;0.90;;;;;;;44.79;18.68;99463.31;4735908;30;20139;-81
2021/06/26 09:42:41;;;;;;;0.80;0.80;;;;;;;44.91;19.19;99454.53;4762341;30;20079;-79
2021/06/26 09:45:09;;;;;;;1.00;1.00;;;;;;;45.57;19.12;99455.75;4750242;30;20098;-81
2021/06/26 09:47:44;;;;;;;1.15;1.10;;;;;;;45.44;18.67;99451.50;4779813;29;20497;-82
2021/06/26 09:50:23;;;;;;;1.00;1.00;;;;;;;45.52;18.66;99453.25;4779512;30;20055;-81
2021/06/26 09:52:51;;;;;;;0.80;0.80;;;;;;;45.45;18.47;99448.31;4751720;30;20051;-82
2021/06/26 09:55:24;;;;;;;0.88;0.88;;;;;;;45.00;19.06;99446.47;4766605;30;20047;-82
2021/06/26 09:58:07;;;;;;;1.05;1.00;;;;;;;44.85;20.08;99444.66;4766512;30;20051;-80
2021/06/26 10:00:38;;;;;;;1.15;1.00;;;;;;;44.70;19.39;99435.91;4767078;30;20054;-82
2021/06/26 10:03:04;;;;;;;1.20;1.10;;;;;;;44.84;19.18;99431.59;4752247;30;20043;-80
2021/06/26 10:05:32;;;;;;;0.80;0.80;;;;;;;44.55;19.38;99436.88;4767067;30;20081;-81
2021/06/26 10:08:04;;;;;;;1.00;0.95;;;;;;;44.79;19.00;99431.94;4747110;30;20051;-81
2021/06/26 10:10:32;;;;;;;1.00;1.00;;;;;;;44.53;19.11;99434.41;4737680;30;20449;-81
2021/06/26 10:12:59;;;;;;;0.98;0.98;;;;;;;44.24;19.62;99430.25;4752651;30;20401;-80
2021/06/26 10:15:34;;;;;;;0.82;0.82;;;;;;;44.74;18.69;99433.91;4768358;30;20054;-82
2021/06/26 10:18:04;;;;;;;0.93;0.93;;;;;;;44.92;19.04;99425.59;4777428;29;20051;-80
2021/06/26 10:20:37;;;;;;;0.80;0.80;;;;;;;44.58;18.94;99424.72;4767698;30;20103;-81
2021/06/26 10:23:04;;;;;;;0.90;0.90;;;;;;;44.77;19.09;99422.94;4723992;30;20071;-82
2021/06/26 10:25:33;;;;;;;0.80;0.80;;;;;;;43.21;20.06;99429.19;4750796;30;20504;-79
2021/06/26 10:28:06;;;;;;;1.02;1.00;;;;;;;43.57;20.45;99429.91;4755483;30;20049;-81
2021/06/26 10:30:33;;;;;;;0.85;0.85;;;;;;;43.90;20.12;99428.50;4747954;30;20206;-81
2021/06/26 10:33:02;;;;;;;1.00;0.90;;;;;;;44.08;19.76;99426.75;4762285;30;20044;-81
2021/06/26 10:35:31;;;;;;;0.88;0.88;;;;;;;44.14;19.28;99419.53;4745855;30;20125;-81
2021/06/26 10:38:05;;;;;;;0.90;0.90;;;;;;;43.70;19.18;99417.16;4763295;30;20430;-80
2021/06/26 10:40:41;;;;;;;0.70;0.70;;;;;;;44.53;18.85;99419.31;4764817;30;20079;-82
2021/06/26 10:43:19;;;;;;;1.10;1.00;;;;;;;44.51;18.79;99411.16;4764886;30;20052;-79
2021/06/26 10:45:46;;;;;;;0.90;0.82;;;;;;;44.41;19.37;99416.72;4761629;30;20043;-83
2021/06/26 10:48:24;;;;;;;1.17;0.90;;;;;;;43.99;18.84;99414.78;4760973;30;20483;-81
2021/06/26 10:50:53;;;;;;;1.10;1.00;;;;;;;44.63;18.35;99418.66;4747529;30;20059;-82
2021/06/26 10:53:36;;;;;;;0.80;0.80;;;;;;;45.00;18.97;99413.03;4756847;30;20047;-80
2021/06/26 10:56:07;;;;;;;0.85;0.82;;;;;;;44.41;19.63;99414.69;4747480;30;20068;-82
2021/06/26 10:58:36;;;;;;;0.70;0.70;;;;;;;44.63;18.81;99421.50;4762545;30;20043;-83
2021/06/26 11:01:23;;;;;;;2.38;1.15;;;;;;;43.00;20.14;99418.16;4761821;30;20048;-82
2021/06/26 11:04:10;;;;;;;0.80;0.80;;;;;;;43.47;20.11;99413.41;4749489;30;20090;-81
2021/06/26 11:06:38;;;;;;;0.77;0.77;;;;;;;43.55;19.78;99416.06;4763010;30;20045;-79
2021/06/26 11:09:12;;;;;;;1.27;0.90;;;;;;;43.60;18.91;99400.69;4749964;30;20092;-80
2021/06/26 11:11:41;;;;;;;0.82;0.80;;;;;;;43.37;19.47;99399.81;4764279;30;20068;-81
2021/06/26 11:14:28;;;;;;;0.70;0.70;;;;;;;43.86;19.02;99393.41;4764401;30;20546;-77
2021/06/26 11:16:56;;;;;;;0.90;0.90;;;;;;;44.62;19.43;99394.19;4730761;30;20433;-81
2021/06/26 11:19:24;;;;;;;0.80;0.80;;;;;;;44.36;19.21;99388.50;4765753;30;20050;-80
2021/06/26 11:21:52;;;;;;;0.90;0.90;;;;;;;44.24;19.44;99387.50;4749053;30;20051;-79
2021/06/26 11:24:31;;;;;;;0.90;0.90;;;;;;;43.47;20.11;99390.66;4748497;30;20545;-81
2021/06/26 11:26:58;;;;;;;1.02;1.02;;;;;;;42.08;21.69;99377.06;4763904;30;20067;-79
2021/06/26 11:29:29;;;;;;;0.80;0.80;;;;;;;41.04;22.57;99377.19;4768030;30;20070;-79
2021/06/26 11:31:56;;;;;;;1.17;1.00;;;;;;;40.49;23.50;99370.25;4751851;30;20083;-81
2021/06/26 11:34:22;;;;;;;0.80;0.80;;;;;;;40.65;22.93;99367.50;4754560;30;20070;-82
2021/06/26 11:37:00;;;;;;;0.90;0.90;;;;;;;41.66;22.23;99364.28;4768014;30;20139;-81
2021/06/26 11:39:26;;;;;;;1.45;1.02;;;;;;;41.87;22.11;99361.19;4780729;30;20048;-81